createdAt,value
2023-05-07T00:00:56.140Z,0.70
2023-05-07T00:03:24.099Z,0.68
2023-05-07T00:05:53.751Z,1.23
2023-05-07T00:08:22.611Z,1.10
2023-05-07T00:10:50.488Z,0.90
2023-05-07T00:13:19.556Z,1.30
2023-05-07T00:15:47.270Z,1.00
2023-05-07T00:18:14.966Z,1.05
2023-05-07T00:20:42.726Z,0.88
2023-05-07T00:23:11.325Z,0.80
2023-05-07T00:25:39.110Z,0.80
2023-05-07T00:28:06.842Z,1.30
2023-05-07T00:30:36.370Z,0.95
2023-05-07T00:33:04.190Z,1.30
2023-05-07T00:35:32.020Z,0.95
2023-05-07T00:37:59.950Z,1.77
2023-05-07T00:40:27.695Z,1.13
2023-05-07T00:42:58.764Z,1.05
2023-05-07T00:45:28.901Z,0.93
2023-05-07T00:48:01.671Z,0.95
2023-05-07T00:50:30.734Z,1.00
2023-05-07T00:52:58.971Z,0.65
2023-05-07T00:55:27.255Z,1.25
2023-05-07T00:57:55.437Z,1.13
2023-05-07T01:00:23.218Z,0.82
2023-05-07T01:02:51.016Z,1.60
2023-05-07T01:05:24.682Z,1.00
2023-05-07T01:07:56.299Z,1.08
2023-05-07T01:10:25.548Z,1.00
2023-05-07T01:12:55.928Z,1.20
2023-05-07T01:15:23.792Z,0.90
2023-05-07T01:17:51.656Z,1.05
2023-05-07T01:20:21.558Z,1.38
2023-05-07T01:22:51.467Z,1.13
2023-05-07T01:25:20.418Z,1.10
2023-05-07T01:27:48.207Z,0.73
2023-05-07T01:30:16.982Z,1.05
2023-05-07T01:32:50.405Z,0.73
2023-05-07T01:35:23.366Z,0.82
2023-05-07T01:37:53.039Z,0.55
2023-05-07T01:40:21.314Z,0.80
2023-05-07T01:42:50.209Z,0.82
2023-05-07T01:45:18.083Z,1.20
2023-05-07T01:47:46.487Z,0.93
2023-05-07T01:50:14.776Z,0.85
2023-05-07T01:52:42.839Z,0.93
2023-05-07T01:55:12.350Z,0.90
2023-05-07T01:57:40.321Z,0.95
2023-05-07T02:00:10.077Z,1.27
2023-05-07T02:02:39.195Z,0.57
2023-05-07T02:05:08.287Z,0.90
2023-05-07T02:07:36.291Z,1.10
2023-05-07T02:10:04.867Z,1.13
2023-05-07T02:12:33.923Z,1.10
2023-05-07T02:15:02.515Z,0.93
2023-05-07T02:17:32.634Z,0.70
2023-05-07T02:20:00.643Z,0.77
2023-05-07T02:22:30.372Z,0.60
2023-05-07T02:24:58.130Z,0.90
2023-05-07T02:27:25.895Z,0.90
2023-05-07T02:29:54.988Z,0.93
2023-05-07T02:32:24.026Z,0.60
2023-05-07T02:34:52.420Z,0.95
2023-05-07T02:37:20.167Z,0.90
2023-05-07T02:39:47.872Z,0.57
2023-05-07T02:42:15.617Z,1.05
2023-05-07T02:44:43.319Z,0.90
2023-05-07T02:47:13.942Z,1.45
2023-05-07T02:49:41.846Z,0.90
2023-05-07T02:52:10.196Z,1.67
2023-05-07T02:54:37.859Z,1.15
2023-05-07T02:57:06.057Z,1.27
2023-05-07T02:59:34.232Z,1.00
2023-05-07T03:02:01.969Z,0.95
2023-05-07T03:04:31.383Z,1.02
2023-05-07T03:06:59.110Z,0.77
2023-05-07T03:09:26.863Z,1.15
2023-05-07T03:11:54.583Z,0.88
2023-05-07T03:14:22.524Z,1.23
2023-05-07T03:16:52.055Z,1.05
2023-05-07T03:19:19.774Z,0.85
2023-05-07T03:21:48.920Z,1.13
2023-05-07T03:24:16.697Z,1.70
2023-05-07T03:26:44.458Z,0.90
2023-05-07T03:29:12.211Z,1.00
2023-05-07T03:31:40.068Z,1.27
2023-05-07T03:34:07.876Z,1.23
2023-05-07T03:36:35.569Z,1.25
2023-05-07T03:39:04.701Z,1.40
2023-05-07T03:41:32.493Z,1.63
2023-05-07T03:44:00.197Z,1.27
2023-05-07T03:46:29.432Z,1.40
2023-05-07T03:48:57.227Z,1.15
2023-05-07T03:51:25.004Z,1.05
2023-05-07T03:53:53.864Z,1.27
2023-05-07T03:56:22.958Z,1.40
2023-05-07T03:58:50.744Z,1.40
2023-05-07T04:01:18.635Z,1.40
2023-05-07T04:06:14.467Z,1.23
2023-05-07T04:08:42.206Z,1.60
2023-05-07T04:11:09.928Z,1.83
2023-05-07T04:13:39.017Z,1.33
2023-05-07T04:16:08.097Z,1.35
2023-05-07T04:18:35.831Z,1.58
2023-05-07T04:21:03.559Z,1.40
2023-05-07T04:23:31.384Z,1.00
2023-05-07T04:25:59.189Z,1.23
2023-05-07T04:28:26.874Z,1.52
2023-05-07T04:30:55.938Z,1.25
2023-05-07T04:33:23.713Z,0.82
2023-05-07T04:35:51.515Z,0.85
2023-05-07T04:38:19.448Z,0.70
2023-05-07T04:40:47.765Z,1.13
2023-05-07T04:43:15.454Z,1.33
2023-05-07T04:45:43.997Z,1.55
2023-05-07T04:48:13.570Z,1.13
2023-05-07T04:50:41.686Z,1.27
2023-05-07T04:53:09.420Z,1.35
2023-05-07T04:55:37.173Z,0.95
2023-05-07T04:58:05.812Z,1.40
2023-05-07T05:00:34.280Z,0.70
2023-05-07T05:03:02.291Z,0.77
2023-05-07T05:05:31.566Z,1.20
2023-05-07T05:07:59.294Z,1.33
2023-05-07T05:10:27.257Z,1.20
2023-05-07T05:12:55.009Z,1.08
2023-05-07T05:15:22.823Z,2.00
2023-05-07T05:17:50.745Z,1.50
2023-05-07T05:20:18.645Z,1.77
2023-05-07T05:22:47.814Z,1.05
2023-05-07T05:25:16.024Z,1.30
2023-05-07T05:27:43.727Z,1.42
2023-05-07T05:30:13.789Z,1.45
2023-05-07T05:32:41.642Z,1.25
2023-05-07T05:35:10.394Z,1.60
2023-05-07T05:37:38.150Z,1.73
2023-05-07T05:40:09.312Z,1.35
2023-05-07T05:42:37.248Z,1.40
2023-05-07T05:45:05.897Z,1.65
2023-05-07T05:47:33.754Z,1.88
2023-05-07T05:50:01.522Z,1.40
2023-05-07T05:52:29.699Z,1.48
2023-05-07T05:54:57.518Z,1.52
2023-05-07T05:57:28.617Z,1.58
2023-05-07T05:59:56.960Z,1.70
2023-05-07T06:02:25.191Z,1.17
2023-05-07T06:04:53.195Z,1.30
2023-05-07T06:07:20.909Z,1.83
2023-05-07T06:09:48.626Z,1.90
2023-05-07T06:12:16.466Z,1.75
2023-05-07T06:14:46.250Z,1.58
2023-05-07T06:17:14.249Z,1.65
2023-05-07T06:19:41.954Z,2.05
2023-05-07T06:22:09.720Z,1.67
2023-05-07T06:24:37.550Z,1.85
2023-05-07T06:27:05.430Z,2.22
2023-05-07T06:29:34.301Z,1.60
2023-05-07T06:32:10.747Z,1.88
2023-05-07T06:34:39.193Z,1.92
2023-05-07T06:37:07.883Z,1.83
2023-05-07T06:39:35.765Z,2.42
2023-05-07T06:42:05.394Z,2.13
2023-05-07T06:44:33.220Z,1.92
2023-05-07T06:47:01.097Z,1.83
2023-05-07T06:49:30.205Z,1.73
2023-05-07T06:51:57.915Z,1.85
2023-05-07T06:54:25.694Z,2.17
2023-05-07T06:56:53.429Z,2.35
2023-05-07T06:59:21.172Z,1.65
2023-05-07T07:01:48.918Z,1.83
2023-05-07T07:04:16.759Z,1.65
2023-05-07T07:06:46.178Z,1.63
2023-05-07T07:09:13.984Z,1.38
2023-05-07T07:11:41.650Z,1.90
2023-05-07T07:14:09.366Z,1.95
2023-05-07T07:16:37.170Z,1.80
2023-05-07T07:19:04.902Z,1.27
2023-05-07T07:21:33.137Z,1.58
2023-05-07T07:24:02.245Z,1.58
2023-05-07T07:26:29.957Z,1.30
2023-05-07T07:28:57.675Z,1.38
2023-05-07T07:31:25.416Z,1.17
2023-05-07T07:33:53.392Z,1.13
2023-05-07T07:36:23.373Z,1.48
2023-05-07T07:38:51.390Z,1.13
2023-05-07T07:41:20.506Z,1.20
2023-05-07T07:43:49.826Z,1.40
2023-05-07T07:46:17.722Z,1.60
2023-05-07T07:48:45.584Z,1.20
2023-05-07T07:51:13.273Z,1.25
2023-05-07T07:53:42.022Z,1.60
2023-05-07T07:56:09.797Z,1.70
2023-05-07T07:58:40.080Z,1.08
2023-05-07T08:01:07.799Z,1.08
2023-05-07T08:03:36.500Z,1.35
2023-05-07T08:06:04.937Z,1.17
2023-05-07T08:08:32.944Z,1.63
2023-05-07T08:11:00.908Z,1.58
2023-05-07T08:13:28.855Z,1.58
2023-05-07T08:15:57.946Z,1.60
2023-05-07T08:18:26.484Z,1.35
2023-05-07T08:20:54.271Z,0.95
2023-05-07T08:23:22.060Z,1.40
2023-05-07T08:25:50.294Z,1.88
2023-05-07T08:28:17.980Z,1.05
2023-05-07T08:30:45.839Z,1.38
2023-05-07T08:33:15.093Z,1.67
2023-05-07T08:35:42.871Z,1.27
2023-05-07T08:38:10.595Z,1.17
2023-05-07T08:40:41.720Z,1.38
2023-05-07T08:43:10.269Z,1.10
2023-05-07T08:45:42.560Z,1.17
2023-05-07T08:48:17.847Z,1.30
2023-05-07T08:50:47.721Z,1.33
2023-05-07T08:53:18.208Z,1.25
2023-05-07T08:55:47.141Z,1.38
2023-05-07T08:58:14.884Z,1.50
2023-05-07T09:00:44.566Z,1.92
2023-05-07T09:03:13.747Z,1.75
2023-05-07T09:05:41.862Z,1.35
2023-05-07T09:08:10.989Z,1.25
2023-05-07T09:10:38.903Z,1.10
2023-05-07T09:13:06.629Z,1.50
2023-05-07T09:15:34.552Z,1.25
2023-05-07T09:18:03.154Z,1.42
2023-05-07T09:20:33.007Z,1.42
2023-05-07T09:23:00.846Z,0.90
2023-05-07T09:25:34.228Z,1.50
2023-05-07T09:28:03.374Z,1.35
2023-05-07T09:30:32.114Z,1.35
2023-05-07T09:33:01.275Z,1.55
2023-05-07T09:35:29.957Z,1.38
2023-05-07T09:38:01.109Z,1.60
2023-05-07T09:40:33.128Z,1.42
2023-05-07T09:43:12.720Z,1.55
2023-05-07T09:45:40.790Z,1.48
2023-05-07T09:48:09.771Z,1.30
2023-05-07T09:50:47.315Z,1.42
2023-05-07T09:53:16.901Z,1.08
2023-05-07T09:55:47.923Z,1.38
2023-05-07T09:58:19.476Z,0.85
2023-05-07T10:00:47.558Z,1.40
2023-05-07T10:03:18.892Z,1.15
2023-05-07T10:05:48.380Z,1.08
2023-05-07T10:08:17.899Z,1.08
2023-05-07T10:10:48.056Z,1.10
2023-05-07T10:13:16.067Z,1.25
2023-05-07T10:15:44.423Z,1.25
2023-05-07T10:18:14.367Z,1.35
2023-05-07T10:20:47.783Z,1.20
2023-05-07T10:23:25.331Z,1.17
2023-05-07T10:26:00.670Z,1.52
2023-05-07T10:28:32.558Z,1.50
2023-05-07T10:31:17.770Z,1.40
2023-05-07T10:33:51.124Z,1.30
2023-05-07T10:36:20.650Z,1.38
2023-05-07T10:38:48.462Z,1.67
2023-05-07T10:41:19.567Z,1.60
2023-05-07T10:43:47.988Z,2.00
2023-05-07T10:46:18.893Z,1.70
2023-05-07T10:49:12.154Z,1.63
2023-05-07T10:51:40.873Z,2.20
2023-05-07T10:54:22.769Z,1.85
2023-05-07T10:56:52.604Z,2.17
2023-05-07T10:59:42.608Z,2.08
2023-05-07T11:02:12.182Z,2.05
2023-05-07T11:04:41.180Z,2.15
2023-05-07T11:07:32.001Z,2.25
2023-05-07T11:10:06.264Z,2.03
2023-05-07T11:12:56.545Z,1.90
2023-05-07T11:15:46.343Z,1.77
2023-05-07T11:18:16.851Z,1.77
2023-05-07T11:20:59.932Z,1.50
2023-05-07T11:24:01.869Z,1.63
2023-05-07T11:26:32.954Z,1.85
2023-05-07T11:29:02.829Z,2.00
2023-05-07T11:31:30.921Z,1.80
2023-05-07T11:34:00.153Z,1.98
2023-05-07T11:36:33.455Z,1.58
2023-05-07T11:39:01.334Z,2.05
2023-05-07T11:41:37.003Z,1.88
2023-05-07T11:44:06.445Z,1.98
2023-05-07T11:46:35.588Z,2.22
2023-05-07T11:49:03.621Z,2.00
2023-05-07T11:51:32.416Z,2.38
2023-05-07T11:54:00.179Z,1.85
2023-05-07T11:56:27.862Z,2.00
2023-05-07T11:58:55.851Z,1.60
2023-05-07T12:01:24.922Z,2.20
2023-05-07T12:03:52.787Z,2.38
2023-05-07T12:06:21.873Z,1.85
2023-05-07T12:08:49.698Z,2.03
2023-05-07T12:11:25.142Z,2.40
2023-05-07T12:13:53.097Z,2.25
2023-05-07T12:16:21.641Z,2.55
2023-05-07T12:18:53.566Z,2.15
2023-05-07T12:21:21.422Z,2.33
2023-05-07T12:23:49.889Z,2.00
2023-05-07T12:26:17.593Z,1.60
2023-05-07T12:29:00.499Z,1.90
2023-05-07T12:31:28.355Z,2.40
2023-05-07T12:33:57.476Z,1.70
2023-05-07T12:36:26.597Z,1.92
2023-05-07T12:38:56.814Z,1.88
2023-05-07T12:41:28.003Z,1.80
2023-05-07T12:43:59.267Z,1.90
2023-05-07T12:46:27.061Z,1.73
2023-05-07T12:48:55.577Z,1.67
2023-05-07T12:51:24.972Z,1.83
2023-05-07T12:53:57.670Z,2.08
2023-05-07T12:56:25.406Z,1.55
2023-05-07T12:58:53.312Z,1.67
2023-05-07T13:01:21.256Z,1.88
2023-05-07T13:03:51.267Z,1.75
2023-05-07T13:06:19.270Z,1.80
2023-05-07T13:08:48.474Z,2.03
2023-05-07T13:11:16.470Z,1.70
2023-05-07T13:13:44.268Z,1.63
2023-05-07T13:16:13.535Z,1.95
2023-05-07T13:18:44.623Z,1.98
2023-05-07T13:21:14.016Z,2.08
2023-05-07T13:23:54.962Z,2.10
2023-05-07T13:26:29.132Z,1.95
2023-05-07T13:29:06.700Z,1.83
2023-05-07T13:31:37.793Z,1.60
2023-05-07T13:34:11.253Z,2.08
2023-05-07T13:36:44.251Z,1.90
2023-05-07T13:39:16.646Z,2.10
2023-05-07T13:41:44.362Z,2.22
2023-05-07T13:44:12.293Z,2.25
2023-05-07T13:46:40.692Z,2.33
2023-05-07T13:49:22.015Z,1.85
2023-05-07T13:52:00.927Z,3.33
2023-05-07T13:54:30.711Z,2.60
2023-05-07T13:57:01.454Z,1.98
2023-05-07T13:59:44.407Z,2.03
2023-05-07T14:02:24.765Z,1.70
2023-05-07T14:04:53.045Z,1.90
2023-05-07T14:07:26.990Z,1.80
2023-05-07T14:10:01.470Z,1.90
2023-05-07T14:12:43.930Z,1.70
2023-05-07T14:15:15.790Z,1.93
2023-05-07T14:17:46.652Z,1.90
2023-05-07T14:20:17.268Z,2.00
2023-05-07T14:22:48.316Z,2.05
2023-05-07T14:25:18.141Z,2.03
2023-05-07T14:27:46.138Z,2.03
2023-05-07T14:30:14.908Z,2.10
2023-05-07T14:32:42.625Z,1.52
2023-05-07T14:35:11.164Z,1.60
2023-05-07T14:37:39.259Z,1.58
2023-05-07T14:40:09.281Z,2.00
2023-05-07T14:42:38.476Z,1.85
2023-05-07T14:45:07.798Z,1.80
2023-05-07T14:47:35.779Z,1.50
2023-05-07T14:50:03.659Z,1.63
2023-05-07T14:52:31.387Z,1.63
2023-05-07T14:54:59.152Z,1.17
2023-05-07T14:57:26.936Z,1.30
2023-05-07T14:59:56.070Z,1.50
2023-05-07T15:02:24.033Z,1.00
2023-05-07T15:04:52.024Z,1.33
2023-05-07T15:07:19.772Z,1.25
2023-05-07T15:09:48.045Z,1.95
2023-05-07T15:12:15.898Z,1.15
2023-05-07T15:14:43.702Z,1.10
2023-05-07T15:17:12.794Z,1.15
2023-05-07T15:19:40.751Z,1.60
2023-05-07T15:22:08.589Z,1.48
2023-05-07T15:24:36.343Z,2.08
2023-05-07T15:27:04.594Z,2.15
2023-05-07T15:29:32.633Z,1.35
2023-05-07T15:32:00.413Z,1.38
2023-05-07T15:34:29.466Z,1.25
2023-05-07T15:36:57.768Z,1.23
2023-05-07T15:39:25.513Z,1.80
2023-05-07T15:41:53.352Z,1.63
2023-05-07T15:44:21.114Z,1.75
2023-05-07T15:46:48.831Z,1.48
2023-05-07T15:49:16.713Z,1.13
2023-05-07T15:51:45.894Z,1.60
2023-05-07T15:54:13.595Z,1.40
2023-05-07T15:56:41.316Z,1.08
2023-05-07T15:59:10.069Z,1.23
2023-05-07T16:01:37.857Z,0.90
2023-05-07T16:04:06.001Z,1.50
2023-05-07T16:06:33.714Z,0.85
2023-05-07T16:09:03.198Z,1.73
2023-05-07T16:11:31.414Z,1.00
2023-05-07T16:14:00.658Z,1.20
2023-05-07T16:16:29.964Z,1.23
2023-05-07T16:18:57.906Z,1.08
2023-05-07T16:21:25.776Z,1.20
2023-05-07T16:23:53.540Z,1.08
2023-05-07T16:26:22.620Z,1.05
2023-05-07T16:28:51.636Z,0.93
2023-05-07T16:31:19.648Z,1.48
2023-05-07T16:33:47.440Z,1.02
2023-05-07T16:36:15.251Z,0.65
2023-05-07T16:38:43.099Z,1.15
2023-05-07T16:41:11.143Z,0.60
2023-05-07T16:43:40.836Z,1.00
2023-05-07T16:46:08.652Z,1.25
2023-05-07T16:48:36.358Z,1.27
2023-05-07T16:51:04.450Z,1.02
2023-05-07T16:53:32.184Z,1.15
2023-05-07T16:55:59.976Z,1.00
2023-05-07T16:58:28.201Z,1.05
2023-05-07T17:00:57.311Z,0.93
2023-05-07T17:03:25.146Z,0.70
2023-05-07T17:05:53.307Z,0.95
2023-05-07T17:08:21.128Z,0.93
2023-05-07T17:10:48.875Z,0.82
2023-05-07T17:13:16.658Z,0.47
2023-05-07T17:15:46.395Z,0.30
2023-05-07T17:18:15.704Z,0.85
2023-05-07T17:20:43.473Z,0.40
2023-05-07T17:23:11.406Z,0.47
2023-05-07T17:25:39.289Z,0.77
2023-05-07T17:28:07.072Z,0.70
2023-05-07T17:30:34.766Z,0.90
2023-05-07T17:33:16.941Z,0.50
2023-05-07T17:35:50.235Z,0.60
2023-05-07T17:38:18.094Z,0.98
2023-05-07T17:40:45.929Z,0.60
2023-05-07T17:43:13.783Z,0.70
2023-05-07T17:45:41.699Z,0.38
2023-05-07T17:48:09.521Z,0.60
2023-05-07T17:50:37.266Z,0.50
2023-05-07T17:53:07.768Z,0.30
2023-05-07T17:55:40.294Z,0.40
2023-05-07T17:58:09.635Z,0.63
2023-05-07T18:00:38.334Z,0.35
2023-05-07T18:03:06.757Z,0.60
2023-05-07T18:05:37.574Z,1.00
2023-05-07T18:08:08.021Z,0.20
2023-05-07T18:10:35.899Z,0.28
2023-05-07T18:13:04.434Z,0.63
2023-05-07T18:15:32.273Z,0.52
2023-05-07T18:18:00.065Z,0.30
2023-05-07T18:20:28.074Z,0.30
2023-05-07T18:22:55.991Z,0.43
2023-05-07T18:25:25.522Z,0.52
2023-05-07T18:27:53.272Z,0.73
2023-05-07T18:30:22.048Z,0.55
2023-05-07T18:32:50.368Z,0.40
2023-05-07T18:35:18.989Z,0.57
2023-05-07T18:37:46.741Z,0.50
2023-05-07T18:40:15.025Z,0.70
2023-05-07T18:42:44.420Z,0.47
2023-05-07T18:45:13.110Z,0.10
2023-05-07T18:47:40.997Z,0.68
2023-05-07T18:50:10.332Z,0.82
2023-05-07T18:52:38.777Z,0.52
2023-05-07T18:55:09.443Z,0.65
2023-05-07T18:57:37.210Z,0.85
2023-05-07T19:00:09.331Z,0.43
2023-05-07T19:02:37.213Z,0.50
2023-05-07T19:05:06.468Z,0.38
2023-05-07T19:07:34.444Z,0.43
2023-05-07T19:10:05.587Z,0.40
2023-05-07T19:12:34.208Z,0.68
2023-05-07T19:15:02.178Z,0.50
2023-05-07T19:17:31.364Z,0.50
2023-05-07T19:19:59.164Z,0.70
2023-05-07T19:22:27.326Z,0.60
2023-05-07T19:24:57.086Z,0.32
2023-05-07T19:27:24.975Z,0.55
2023-05-07T19:29:52.726Z,0.40
2023-05-07T19:32:21.206Z,0.77
2023-05-07T19:34:50.396Z,0.30
2023-05-07T19:37:19.505Z,0.68
2023-05-07T19:39:48.800Z,0.60
2023-05-07T19:42:16.667Z,0.65
2023-05-07T19:44:44.502Z,0.20
2023-05-07T19:47:12.463Z,0.60
2023-05-07T19:49:40.210Z,0.30
2023-05-07T19:52:09.386Z,0.43
2023-05-07T19:54:37.178Z,0.32
2023-05-07T19:57:05.127Z,0.30
2023-05-07T19:59:32.823Z,0.32
2023-05-07T20:02:00.633Z,0.30
2023-05-07T20:04:37.150Z,0.30
2023-05-07T20:07:05.489Z,0.22
2023-05-07T20:09:34.845Z,0.40
2023-05-07T20:12:02.639Z,0.32
2023-05-07T20:14:30.397Z,0.20
2023-05-07T20:16:58.110Z,0.35
2023-05-07T20:19:25.903Z,0.25
2023-05-07T20:21:53.637Z,0.32
2023-05-07T20:24:22.114Z,0.45
2023-05-07T20:26:51.169Z,0.50
2023-05-07T20:29:20.298Z,0.60
2023-05-07T20:31:48.077Z,0.63
2023-05-07T20:34:15.809Z,0.20
2023-05-07T20:36:43.518Z,0.22
2023-05-07T20:39:15.824Z,0.38
2023-05-07T20:41:44.731Z,0.40
2023-05-07T20:44:13.810Z,0.35
2023-05-07T20:46:41.575Z,0.25
2023-05-07T20:49:09.297Z,0.40
2023-05-07T20:51:37.236Z,0.68
2023-05-07T20:54:04.978Z,0.32
2023-05-07T20:56:32.675Z,0.45
2023-05-07T20:59:00.383Z,0.13
2023-05-07T21:01:29.491Z,0.47
2023-05-07T21:03:57.559Z,0.32
2023-05-07T21:06:25.337Z,0.45
2023-05-07T21:08:53.049Z,0.45
2023-05-07T21:11:21.555Z,0.45
2023-05-07T21:13:49.277Z,0.30
2023-05-07T21:16:17.056Z,0.88
2023-05-07T21:18:46.201Z,0.35
2023-05-07T21:21:16.233Z,0.43
2023-05-07T21:23:44.188Z,0.25
2023-05-07T21:26:18.679Z,0.50
2023-05-07T21:28:46.729Z,0.43
2023-05-07T21:31:14.645Z,0.50
2023-05-07T21:33:43.961Z,0.25
2023-05-07T21:36:13.466Z,0.80
2023-05-07T21:38:41.382Z,0.75
2023-05-07T21:41:09.212Z,0.17
2023-05-07T21:43:37.611Z,0.40
2023-05-07T21:46:08.154Z,0.20
2023-05-07T21:48:36.013Z,0.52
2023-05-07T21:51:05.699Z,0.45
2023-05-07T21:53:35.663Z,0.47
2023-05-07T21:56:04.715Z,0.25
2023-05-07T21:58:32.503Z,0.20
2023-05-07T22:01:01.390Z,0.25
2023-05-07T22:03:29.420Z,0.25
2023-05-07T22:05:57.261Z,0.57
2023-05-07T22:08:25.478Z,0.25
2023-05-07T22:10:54.573Z,0.20
2023-05-07T22:13:22.325Z,0.28
2023-05-07T22:15:57.292Z,0.60
2023-05-07T22:18:26.435Z,0.10
2023-05-07T22:20:54.497Z,0.45
2023-05-07T22:23:22.375Z,0.32
2023-05-07T22:25:50.066Z,0.63
2023-05-07T22:28:19.182Z,0.28
2023-05-07T22:30:47.683Z,0.65
2023-05-07T22:33:15.494Z,0.30
2023-05-07T22:35:43.216Z,0.47
2023-05-07T22:38:11.117Z,0.73
2023-05-07T22:40:38.795Z,0.30
2023-05-07T22:43:06.658Z,0.38
2023-05-07T22:45:35.856Z,0.20
2023-05-07T22:48:04.044Z,0.17
2023-05-07T22:50:31.782Z,0.40
2023-05-07T22:52:59.475Z,0.38
2023-05-07T22:55:27.257Z,0.10
2023-05-07T22:57:54.955Z,0.30
2023-05-07T23:00:23.127Z,0.35
2023-05-07T23:02:52.358Z,0.50
2023-05-07T23:05:20.406Z,0.30
2023-05-07T23:07:48.305Z,0.30
2023-05-07T23:10:16.475Z,0.25
2023-05-07T23:12:48.949Z,0.10
2023-05-07T23:15:16.984Z,0.30
2023-05-07T23:17:46.322Z,0.52
2023-05-07T23:20:15.714Z,0.10
2023-05-07T23:22:43.485Z,0.73
2023-05-07T23:25:12.146Z,0.35
2023-05-07T23:27:39.871Z,0.50
2023-05-07T23:30:09.778Z,0.30
2023-05-07T23:32:37.879Z,0.10
2023-05-07T23:35:07.475Z,0.20
2023-05-07T23:37:36.615Z,0.52
2023-05-07T23:40:05.320Z,0.40
2023-05-07T23:42:33.107Z,0.20
2023-05-07T23:45:01.111Z,0.40
2023-05-07T23:47:28.835Z,0.40
2023-05-07T23:49:56.569Z,0.40
2023-05-07T23:52:24.304Z,0.35
2023-05-07T23:54:53.305Z,0.30
2023-05-07T23:57:21.068Z,0.28
2023-05-07T23:59:48.807Z,0.32
